sensor_id;sensor_type;location;lat;lon;timestamp;P1;durP1;ratioP1;P2;durP2;ratioP2
72427;SDS011;60419;48.880;18.036;2023-08-08T00:01:30;2.45;;;0.90;;
72427;SDS011;60419;48.880;18.036;2023-08-08T00:04:16;2.25;;;0.82;;
72427;SDS011;60419;48.880;18.036;2023-08-08T00:07:02;2.28;;;0.75;;
72427;SDS011;60419;48.880;18.036;2023-08-08T00:09:47;0.95;;;0.70;;
72427;SDS011;60419;48.880;18.036;2023-08-08T00:12:32;1.52;;;0.88;;
72427;SDS011;60419;48.880;18.036;2023-08-08T00:15:18;2.60;;;0.90;;
72427;SDS011;60419;48.880;18.036;2023-08-08T00:18:03;1.35;;;0.80;;
72427;SDS011;60419;48.880;18.036;2023-08-08T00:20:49;1.25;;;0.80;;
72427;SDS011;60419;48.880;18.036;2023-08-08T00:23:35;2.10;;;0.90;;
72427;SDS011;60419;48.880;18.036;2023-08-08T00:26:20;3.05;;;0.93;;
72427;SDS011;60419;48.880;18.036;2023-08-08T00:29:05;2.25;;;0.90;;
72427;SDS011;60419;48.880;18.036;2023-08-08T00:31:51;1.48;;;0.80;;
72427;SDS011;60419;48.880;18.036;2023-08-08T00:34:36;2.35;;;0.75;;
72427;SDS011;60419;48.880;18.036;2023-08-08T00:37:22;1.58;;;0.80;;
72427;SDS011;60419;48.880;18.036;2023-08-08T00:40:07;1.33;;;1.00;;
72427;SDS011;60419;48.880;18.036;2023-08-08T00:42:53;2.25;;;0.90;;
72427;SDS011;60419;48.880;18.036;2023-08-08T00:45:39;1.58;;;0.93;;
72427;SDS011;60419;48.880;18.036;2023-08-08T00:48:27;1.42;;;0.80;;
72427;SDS011;60419;48.880;18.036;2023-08-08T00:51:13;1.40;;;0.90;;
72427;SDS011;60419;48.880;18.036;2023-08-08T00:53:59;1.80;;;0.90;;
72427;SDS011;60419;48.880;18.036;2023-08-08T00:56:44;1.30;;;0.77;;
72427;SDS011;60419;48.880;18.036;2023-08-08T00:59:30;1.40;;;0.90;;
72427;SDS011;60419;48.880;18.036;2023-08-08T01:02:16;1.45;;;0.95;;
72427;SDS011;60419;48.880;18.036;2023-08-08T01:05:02;1.70;;;0.90;;
72427;SDS011;60419;48.880;18.036;2023-08-08T01:10:40;1.60;;;0.90;;
72427;SDS011;60419;48.880;18.036;2023-08-08T01:13:26;1.42;;;0.80;;
72427;SDS011;60419;48.880;18.036;2023-08-08T01:16:15;2.80;;;1.00;;
72427;SDS011;60419;48.880;18.036;2023-08-08T01:19:02;1.60;;;0.80;;
72427;SDS011;60419;48.880;18.036;2023-08-08T01:21:52;1.42;;;0.90;;
72427;SDS011;60419;48.880;18.036;2023-08-08T01:24:39;3.15;;;0.93;;
72427;SDS011;60419;48.880;18.036;2023-08-08T01:27:25;1.17;;;0.90;;
72427;SDS011;60419;48.880;18.036;2023-08-08T01:30:10;5.45;;;1.10;;
72427;SDS011;60419;48.880;18.036;2023-08-08T01:32:56;2.55;;;0.90;;
72427;SDS011;60419;48.880;18.036;2023-08-08T01:35:43;3.03;;;1.00;;
72427;SDS011;60419;48.880;18.036;2023-08-08T01:38:40;1.55;;;0.90;;
72427;SDS011;60419;48.880;18.036;2023-08-08T01:41:28;1.98;;;0.90;;
72427;SDS011;60419;48.880;18.036;2023-08-08T01:44:16;4.55;;;1.02;;
72427;SDS011;60419;48.880;18.036;2023-08-08T01:47:02;2.15;;;0.98;;
72427;SDS011;60419;48.880;18.036;2023-08-08T01:49:48;1.35;;;0.77;;
72427;SDS011;60419;48.880;18.036;2023-08-08T01:52:33;2.63;;;1.23;;
72427;SDS011;60419;48.880;18.036;2023-08-08T01:55:19;2.33;;;1.10;;
72427;SDS011;60419;48.880;18.036;2023-08-08T01:58:04;2.00;;;0.98;;
72427;SDS011;60419;48.880;18.036;2023-08-08T02:00:50;2.58;;;0.90;;
72427;SDS011;60419;48.880;18.036;2023-08-08T02:03:35;1.90;;;0.98;;
72427;SDS011;60419;48.880;18.036;2023-08-08T02:06:20;3.20;;;1.15;;
72427;SDS011;60419;48.880;18.036;2023-08-08T02:09:06;2.35;;;0.90;;
72427;SDS011;60419;48.880;18.036;2023-08-08T02:11:52;7.40;;;1.58;;
72427;SDS011;60419;48.880;18.036;2023-08-08T02:14:37;2.35;;;1.10;;
72427;SDS011;60419;48.880;18.036;2023-08-08T02:17:22;2.00;;;1.02;;
72427;SDS011;60419;48.880;18.036;2023-08-08T02:20:08;2.17;;;1.10;;
72427;SDS011;60419;48.880;18.036;2023-08-08T02:22:54;3.92;;;1.40;;
72427;SDS011;60419;48.880;18.036;2023-08-08T02:25:39;2.03;;;1.13;;
72427;SDS011;60419;48.880;18.036;2023-08-08T02:28:25;2.22;;;1.20;;
72427;SDS011;60419;48.880;18.036;2023-08-08T02:31:10;4.05;;;1.20;;
72427;SDS011;60419;48.880;18.036;2023-08-08T02:33:55;2.40;;;1.10;;
72427;SDS011;60419;48.880;18.036;2023-08-08T02:36:41;3.88;;;1.40;;
72427;SDS011;60419;48.880;18.036;2023-08-08T02:39:26;2.25;;;1.20;;
72427;SDS011;60419;48.880;18.036;2023-08-08T02:42:11;3.15;;;1.15;;
72427;SDS011;60419;48.880;18.036;2023-08-08T02:44:57;3.53;;;1.33;;
72427;SDS011;60419;48.880;18.036;2023-08-08T02:47:42;3.80;;;2.00;;
72427;SDS011;60419;48.880;18.036;2023-08-08T02:50:27;4.28;;;1.40;;
72427;SDS011;60419;48.880;18.036;2023-08-08T02:53:13;7.25;;;1.58;;
72427;SDS011;60419;48.880;18.036;2023-08-08T02:55:58;2.47;;;1.30;;
72427;SDS011;60419;48.880;18.036;2023-08-08T02:58:44;4.88;;;1.15;;
72427;SDS011;60419;48.880;18.036;2023-08-08T03:01:29;2.42;;;1.17;;
72427;SDS011;60419;48.880;18.036;2023-08-08T03:04:14;2.95;;;1.20;;
72427;SDS011;60419;48.880;18.036;2023-08-08T03:07:00;3.85;;;1.30;;
72427;SDS011;60419;48.880;18.036;2023-08-08T03:09:49;2.15;;;1.25;;
72427;SDS011;60419;48.880;18.036;2023-08-08T03:12:34;3.03;;;1.30;;
72427;SDS011;60419;48.880;18.036;2023-08-08T03:15:19;3.15;;;1.20;;
72427;SDS011;60419;48.880;18.036;2023-08-08T03:18:05;2.60;;;1.50;;
72427;SDS011;60419;48.880;18.036;2023-08-08T03:20:50;3.15;;;1.40;;
72427;SDS011;60419;48.880;18.036;2023-08-08T03:23:36;6.13;;;1.70;;
72427;SDS011;60419;48.880;18.036;2023-08-08T03:26:22;2.85;;;1.65;;
72427;SDS011;60419;48.880;18.036;2023-08-08T03:29:07;5.15;;;1.58;;
72427;SDS011;60419;48.880;18.036;2023-08-08T03:31:55;3.13;;;1.30;;
72427;SDS011;60419;48.880;18.036;2023-08-08T03:34:40;3.47;;;1.63;;
72427;SDS011;60419;48.880;18.036;2023-08-08T03:37:26;5.00;;;1.50;;
72427;SDS011;60419;48.880;18.036;2023-08-08T03:40:11;3.70;;;1.50;;
72427;SDS011;60419;48.880;18.036;2023-08-08T03:42:58;3.17;;;1.42;;
72427;SDS011;60419;48.880;18.036;2023-08-08T03:45:44;4.03;;;1.60;;
72427;SDS011;60419;48.880;18.036;2023-08-08T03:48:30;3.75;;;1.65;;
72427;SDS011;60419;48.880;18.036;2023-08-08T03:51:16;4.80;;;1.70;;
72427;SDS011;60419;48.880;18.036;2023-08-08T03:54:01;2.42;;;1.40;;
72427;SDS011;60419;48.880;18.036;2023-08-08T03:56:47;5.15;;;2.25;;
72427;SDS011;60419;48.880;18.036;2023-08-08T03:59:33;3.92;;;1.55;;
72427;SDS011;60419;48.880;18.036;2023-08-08T04:02:18;5.25;;;1.77;;
72427;SDS011;60419;48.880;18.036;2023-08-08T04:05:03;5.20;;;1.73;;
72427;SDS011;60419;48.880;18.036;2023-08-08T04:07:50;3.17;;;1.70;;
72427;SDS011;60419;48.880;18.036;2023-08-08T04:10:35;6.85;;;1.75;;
72427;SDS011;60419;48.880;18.036;2023-08-08T04:13:21;4.10;;;1.80;;
72427;SDS011;60419;48.880;18.036;2023-08-08T04:16:06;5.43;;;1.70;;
72427;SDS011;60419;48.880;18.036;2023-08-08T04:18:51;4.03;;;1.40;;
72427;SDS011;60419;48.880;18.036;2023-08-08T04:21:37;4.88;;;1.60;;
72427;SDS011;60419;48.880;18.036;2023-08-08T04:24:22;3.70;;;1.65;;
72427;SDS011;60419;48.880;18.036;2023-08-08T04:27:08;3.53;;;1.83;;
72427;SDS011;60419;48.880;18.036;2023-08-08T04:29:53;3.70;;;1.75;;
72427;SDS011;60419;48.880;18.036;2023-08-08T04:32:38;4.00;;;1.60;;
72427;SDS011;60419;48.880;18.036;2023-08-08T04:35:24;3.58;;;1.67;;
72427;SDS011;60419;48.880;18.036;2023-08-08T04:38:09;6.47;;;1.80;;
72427;SDS011;60419;48.880;18.036;2023-08-08T04:40:54;4.25;;;1.67;;
72427;SDS011;60419;48.880;18.036;2023-08-08T04:43:40;3.58;;;1.80;;
72427;SDS011;60419;48.880;18.036;2023-08-08T04:46:25;4.10;;;1.98;;
72427;SDS011;60419;48.880;18.036;2023-08-08T04:49:11;3.80;;;1.50;;
72427;SDS011;60419;48.880;18.036;2023-08-08T04:51:56;3.00;;;1.73;;
72427;SDS011;60419;48.880;18.036;2023-08-08T04:54:41;4.97;;;2.15;;
72427;SDS011;60419;48.880;18.036;2023-08-08T04:57:27;4.03;;;2.08;;
72427;SDS011;60419;48.880;18.036;2023-08-08T05:00:13;2.95;;;1.73;;
72427;SDS011;60419;48.880;18.036;2023-08-08T05:02:59;6.05;;;1.90;;
72427;SDS011;60419;48.880;18.036;2023-08-08T05:05:45;5.55;;;1.90;;
72427;SDS011;60419;48.880;18.036;2023-08-08T05:08:30;3.55;;;1.40;;
72427;SDS011;60419;48.880;18.036;2023-08-08T05:11:15;5.57;;;1.83;;
72427;SDS011;60419;48.880;18.036;2023-08-08T05:14:01;6.70;;;2.05;;
72427;SDS011;60419;48.880;18.036;2023-08-08T05:16:47;4.20;;;1.58;;
72427;SDS011;60419;48.880;18.036;2023-08-08T05:19:32;6.28;;;1.90;;
72427;SDS011;60419;48.880;18.036;2023-08-08T05:22:17;3.28;;;1.70;;
72427;SDS011;60419;48.880;18.036;2023-08-08T05:25:03;6.28;;;2.05;;
72427;SDS011;60419;48.880;18.036;2023-08-08T05:27:49;6.18;;;1.55;;
72427;SDS011;60419;48.880;18.036;2023-08-08T05:30:35;4.45;;;1.85;;
72427;SDS011;60419;48.880;18.036;2023-08-08T05:33:20;5.53;;;1.77;;
72427;SDS011;60419;48.880;18.036;2023-08-08T05:36:05;3.20;;;1.70;;
72427;SDS011;60419;48.880;18.036;2023-08-08T05:38:51;4.40;;;1.83;;
72427;SDS011;60419;48.880;18.036;2023-08-08T05:41:36;4.45;;;1.70;;
72427;SDS011;60419;48.880;18.036;2023-08-08T05:44:21;4.65;;;1.63;;
72427;SDS011;60419;48.880;18.036;2023-08-08T05:47:07;5.55;;;1.73;;
72427;SDS011;60419;48.880;18.036;2023-08-08T05:49:52;5.13;;;1.90;;
72427;SDS011;60419;48.880;18.036;2023-08-08T05:52:38;2.80;;;1.63;;
72427;SDS011;60419;48.880;18.036;2023-08-08T05:55:23;3.78;;;1.77;;
72427;SDS011;60419;48.880;18.036;2023-08-08T05:58:09;3.97;;;1.63;;
72427;SDS011;60419;48.880;18.036;2023-08-08T06:00:54;3.67;;;1.75;;
72427;SDS011;60419;48.880;18.036;2023-08-08T06:03:39;5.32;;;1.52;;
72427;SDS011;60419;48.880;18.036;2023-08-08T06:06:25;3.92;;;1.48;;
72427;SDS011;60419;48.880;18.036;2023-08-08T06:09:11;3.78;;;1.70;;
72427;SDS011;60419;48.880;18.036;2023-08-08T06:11:57;3.63;;;1.38;;
72427;SDS011;60419;48.880;18.036;2023-08-08T06:14:42;3.88;;;1.48;;
72427;SDS011;60419;48.880;18.036;2023-08-08T06:17:27;4.50;;;1.42;;
72427;SDS011;60419;48.880;18.036;2023-08-08T06:20:13;4.97;;;2.03;;
72427;SDS011;60419;48.880;18.036;2023-08-08T06:22:58;4.30;;;1.48;;
72427;SDS011;60419;48.880;18.036;2023-08-08T06:25:44;5.40;;;1.70;;
72427;SDS011;60419;48.880;18.036;2023-08-08T06:28:29;5.22;;;1.50;;
72427;SDS011;60419;48.880;18.036;2023-08-08T06:31:15;4.20;;;1.40;;
72427;SDS011;60419;48.880;18.036;2023-08-08T06:34:00;3.55;;;1.77;;
72427;SDS011;60419;48.880;18.036;2023-08-08T06:36:46;4.30;;;1.50;;
72427;SDS011;60419;48.880;18.036;2023-08-08T06:39:32;4.85;;;1.67;;
72427;SDS011;60419;48.880;18.036;2023-08-08T06:42:17;2.55;;;1.30;;
72427;SDS011;60419;48.880;18.036;2023-08-08T06:45:03;3.60;;;1.50;;
72427;SDS011;60419;48.880;18.036;2023-08-08T06:47:48;4.93;;;1.38;;
72427;SDS011;60419;48.880;18.036;2023-08-08T06:50:34;3.03;;;1.25;;
72427;SDS011;60419;48.880;18.036;2023-08-08T06:53:19;3.75;;;1.80;;
72427;SDS011;60419;48.880;18.036;2023-08-08T06:56:05;3.25;;;1.38;;
72427;SDS011;60419;48.880;18.036;2023-08-08T06:58:50;4.30;;;1.73;;
72427;SDS011;60419;48.880;18.036;2023-08-08T07:01:36;4.88;;;1.83;;
72427;SDS011;60419;48.880;18.036;2023-08-08T07:04:21;2.80;;;1.55;;
72427;SDS011;60419;48.880;18.036;2023-08-08T07:07:07;4.57;;;1.70;;
72427;SDS011;60419;48.880;18.036;2023-08-08T07:09:52;2.75;;;1.30;;
72427;SDS011;60419;48.880;18.036;2023-08-08T07:12:38;7.50;;;1.98;;
72427;SDS011;60419;48.880;18.036;2023-08-08T07:15:23;4.50;;;1.77;;
72427;SDS011;60419;48.880;18.036;2023-08-08T07:18:09;5.20;;;1.80;;
72427;SDS011;60419;48.880;18.036;2023-08-08T07:20:54;3.13;;;1.70;;
72427;SDS011;60419;48.880;18.036;2023-08-08T07:23:41;5.35;;;1.50;;
72427;SDS011;60419;48.880;18.036;2023-08-08T07:26:26;2.88;;;1.30;;
72427;SDS011;60419;48.880;18.036;2023-08-08T07:29:12;4.15;;;1.80;;
72427;SDS011;60419;48.880;18.036;2023-08-08T07:31:57;3.75;;;1.65;;
72427;SDS011;60419;48.880;18.036;2023-08-08T07:34:43;2.67;;;1.48;;
72427;SDS011;60419;48.880;18.036;2023-08-08T07:37:28;3.60;;;1.70;;
72427;SDS011;60419;48.880;18.036;2023-08-08T07:40:14;3.92;;;1.55;;
72427;SDS011;60419;48.880;18.036;2023-08-08T07:43:02;3.65;;;1.35;;
72427;SDS011;60419;48.880;18.036;2023-08-08T07:45:48;4.03;;;1.50;;
72427;SDS011;60419;48.880;18.036;2023-08-08T07:48:33;4.00;;;1.52;;
72427;SDS011;60419;48.880;18.036;2023-08-08T07:51:19;3.38;;;1.60;;
72427;SDS011;60419;48.880;18.036;2023-08-08T07:54:04;3.78;;;1.40;;
72427;SDS011;60419;48.880;18.036;2023-08-08T07:56:55;4.10;;;1.75;;
72427;SDS011;60419;48.880;18.036;2023-08-08T07:59:41;3.08;;;1.38;;
72427;SDS011;60419;48.880;18.036;2023-08-08T08:02:26;3.75;;;1.63;;
72427;SDS011;60419;48.880;18.036;2023-08-08T08:05:12;3.45;;;1.42;;
72427;SDS011;60419;48.880;18.036;2023-08-08T08:07:58;3.47;;;1.25;;
72427;SDS011;60419;48.880;18.036;2023-08-08T08:10:44;2.53;;;1.63;;
72427;SDS011;60419;48.880;18.036;2023-08-08T08:13:30;4.07;;;1.50;;
72427;SDS011;60419;48.880;18.036;2023-08-08T08:16:16;4.20;;;1.92;;
72427;SDS011;60419;48.880;18.036;2023-08-08T08:19:01;4.53;;;1.40;;
72427;SDS011;60419;48.880;18.036;2023-08-08T08:21:47;3.15;;;1.40;;
72427;SDS011;60419;48.880;18.036;2023-08-08T08:24:32;2.88;;;1.52;;
72427;SDS011;60419;48.880;18.036;2023-08-08T08:27:18;2.90;;;1.40;;
72427;SDS011;60419;48.880;18.036;2023-08-08T08:30:04;3.05;;;1.80;;
72427;SDS011;60419;48.880;18.036;2023-08-08T08:32:50;4.85;;;1.58;;
72427;SDS011;60419;48.880;18.036;2023-08-08T08:35:36;4.35;;;1.83;;
72427;SDS011;60419;48.880;18.036;2023-08-08T08:38:22;3.63;;;1.48;;
72427;SDS011;60419;48.880;18.036;2023-08-08T08:41:08;3.47;;;1.65;;
72427;SDS011;60419;48.880;18.036;2023-08-08T08:43:58;3.78;;;1.52;;
72427;SDS011;60419;48.880;18.036;2023-08-08T08:46:44;4.85;;;1.50;;
72427;SDS011;60419;48.880;18.036;2023-08-08T08:49:33;3.47;;;1.80;;
72427;SDS011;60419;48.880;18.036;2023-08-08T08:52:20;3.60;;;1.63;;
72427;SDS011;60419;48.880;18.036;2023-08-08T08:55:07;4.30;;;1.52;;
72427;SDS011;60419;48.880;18.036;2023-08-08T08:57:53;3.90;;;1.58;;
72427;SDS011;60419;48.880;18.036;2023-08-08T09:00:39;2.65;;;1.25;;
72427;SDS011;60419;48.880;18.036;2023-08-08T09:03:26;3.20;;;1.75;;
72427;SDS011;60419;48.880;18.036;2023-08-08T09:06:11;5.57;;;1.77;;
72427;SDS011;60419;48.880;18.036;2023-08-08T09:08:57;3.53;;;1.63;;
72427;SDS011;60419;48.880;18.036;2023-08-08T09:11:44;3.40;;;1.30;;
72427;SDS011;60419;48.880;18.036;2023-08-08T09:14:30;3.08;;;1.67;;
72427;SDS011;60419;48.880;18.036;2023-08-08T09:17:16;3.53;;;1.48;;
72427;SDS011;60419;48.880;18.036;2023-08-08T09:20:02;2.97;;;1.58;;
72427;SDS011;60419;48.880;18.036;2023-08-08T09:22:48;3.05;;;1.60;;
72427;SDS011;60419;48.880;18.036;2023-08-08T09:25:34;2.60;;;1.38;;
72427;SDS011;60419;48.880;18.036;2023-08-08T09:28:20;2.78;;;1.50;;
72427;SDS011;60419;48.880;18.036;2023-08-08T09:31:05;6.13;;;1.40;;
72427;SDS011;60419;48.880;18.036;2023-08-08T09:33:53;3.58;;;1.60;;
72427;SDS011;60419;48.880;18.036;2023-08-08T09:36:39;3.25;;;1.60;;
72427;SDS011;60419;48.880;18.036;2023-08-08T09:39:25;4.13;;;1.60;;
72427;SDS011;60419;48.880;18.036;2023-08-08T09:42:11;3.13;;;1.40;;
72427;SDS011;60419;48.880;18.036;2023-08-08T09:44:58;3.63;;;1.50;;
72427;SDS011;60419;48.880;18.036;2023-08-08T09:47:44;4.43;;;1.60;;
72427;SDS011;60419;48.880;18.036;2023-08-08T09:50:30;2.90;;;1.52;;
72427;SDS011;60419;48.880;18.036;2023-08-08T09:53:18;3.28;;;1.33;;
72427;SDS011;60419;48.880;18.036;2023-08-08T09:56:05;2.42;;;1.23;;
72427;SDS011;60419;48.880;18.036;2023-08-08T09:58:51;2.47;;;1.30;;
72427;SDS011;60419;48.880;18.036;2023-08-08T10:01:37;2.92;;;1.40;;
72427;SDS011;60419;48.880;18.036;2023-08-08T10:04:24;4.50;;;1.63;;
72427;SDS011;60419;48.880;18.036;2023-08-08T10:07:10;5.00;;;1.42;;
72427;SDS011;60419;48.880;18.036;2023-08-08T10:09:56;3.05;;;1.58;;
72427;SDS011;60419;48.880;18.036;2023-08-08T10:12:42;5.53;;;1.50;;
72427;SDS011;60419;48.880;18.036;2023-08-08T10:15:28;3.97;;;1.50;;
72427;SDS011;60419;48.880;18.036;2023-08-08T10:18:13;2.75;;;1.20;;
72427;SDS011;60419;48.880;18.036;2023-08-08T10:20:59;3.20;;;1.70;;
72427;SDS011;60419;48.880;18.036;2023-08-08T10:23:45;3.90;;;1.50;;
72427;SDS011;60419;48.880;18.036;2023-08-08T10:26:31;3.58;;;1.52;;
72427;SDS011;60419;48.880;18.036;2023-08-08T10:29:20;4.55;;;1.65;;
72427;SDS011;60419;48.880;18.036;2023-08-08T10:32:06;2.95;;;1.40;;
72427;SDS011;60419;48.880;18.036;2023-08-08T10:34:54;4.57;;;1.50;;
72427;SDS011;60419;48.880;18.036;2023-08-08T10:37:40;3.95;;;1.60;;
72427;SDS011;60419;48.880;18.036;2023-08-08T10:40:36;3.72;;;1.60;;
72427;SDS011;60419;48.880;18.036;2023-08-08T10:43:28;2.70;;;1.30;;
72427;SDS011;60419;48.880;18.036;2023-08-08T10:46:21;4.00;;;1.67;;
72427;SDS011;60419;48.880;18.036;2023-08-08T10:49:17;3.42;;;1.58;;
72427;SDS011;60419;48.880;18.036;2023-08-08T10:52:03;3.03;;;1.45;;
72427;SDS011;60419;48.880;18.036;2023-08-08T10:54:52;3.20;;;1.50;;
72427;SDS011;60419;48.880;18.036;2023-08-08T10:57:39;3.55;;;1.30;;
72427;SDS011;60419;48.880;18.036;2023-08-08T11:00:29;4.05;;;1.50;;
72427;SDS011;60419;48.880;18.036;2023-08-08T11:03:16;2.80;;;1.63;;
72427;SDS011;60419;48.880;18.036;2023-08-08T11:06:02;2.28;;;1.40;;
72427;SDS011;60419;48.880;18.036;2023-08-08T11:08:48;3.08;;;1.50;;
72427;SDS011;60419;48.880;18.036;2023-08-08T11:11:37;3.13;;;1.50;;
72427;SDS011;60419;48.880;18.036;2023-08-08T11:14:24;2.83;;;1.40;;
72427;SDS011;60419;48.880;18.036;2023-08-08T11:17:10;3.42;;;1.40;;
72427;SDS011;60419;48.880;18.036;2023-08-08T11:19:56;2.70;;;1.45;;
72427;SDS011;60419;48.880;18.036;2023-08-08T11:22:41;2.75;;;1.55;;
72427;SDS011;60419;48.880;18.036;2023-08-08T11:25:28;2.30;;;1.40;;
72427;SDS011;60419;48.880;18.036;2023-08-08T11:28:15;3.45;;;1.67;;
72427;SDS011;60419;48.880;18.036;2023-08-08T11:31:00;2.70;;;1.30;;
72427;SDS011;60419;48.880;18.036;2023-08-08T11:33:47;3.85;;;1.50;;
72427;SDS011;60419;48.880;18.036;2023-08-08T11:36:34;3.03;;;1.63;;
72427;SDS011;60419;48.880;18.036;2023-08-08T11:39:20;2.72;;;1.38;;
72427;SDS011;60419;48.880;18.036;2023-08-08T11:42:06;2.88;;;1.48;;
72427;SDS011;60419;48.880;18.036;2023-08-08T11:44:51;2.10;;;1.23;;
72427;SDS011;60419;48.880;18.036;2023-08-08T11:47:37;2.67;;;1.45;;
72427;SDS011;60419;48.880;18.036;2023-08-08T11:50:24;2.58;;;1.40;;
72427;SDS011;60419;48.880;18.036;2023-08-08T11:53:12;3.15;;;1.60;;
72427;SDS011;60419;48.880;18.036;2023-08-08T11:55:57;4.22;;;1.30;;
72427;SDS011;60419;48.880;18.036;2023-08-08T11:58:44;2.83;;;1.40;;
72427;SDS011;60419;48.880;18.036;2023-08-08T12:01:32;2.72;;;1.23;;
72427;SDS011;60419;48.880;18.036;2023-08-08T12:04:19;2.92;;;1.50;;
72427;SDS011;60419;48.880;18.036;2023-08-08T12:07:05;3.13;;;1.45;;
72427;SDS011;60419;48.880;18.036;2023-08-08T12:09:52;4.30;;;1.40;;
72427;SDS011;60419;48.880;18.036;2023-08-08T12:12:37;2.00;;;1.20;;
72427;SDS011;60419;48.880;18.036;2023-08-08T12:15:23;2.33;;;1.20;;
72427;SDS011;60419;48.880;18.036;2023-08-08T12:18:08;3.05;;;1.30;;
72427;SDS011;60419;48.880;18.036;2023-08-08T12:20:54;1.75;;;1.02;;
72427;SDS011;60419;48.880;18.036;2023-08-08T12:23:40;4.05;;;1.38;;
72427;SDS011;60419;48.880;18.036;2023-08-08T12:26:25;3.22;;;1.10;;
72427;SDS011;60419;48.880;18.036;2023-08-08T12:29:11;4.10;;;1.15;;
72427;SDS011;60419;48.880;18.036;2023-08-08T12:31:57;2.75;;;1.48;;
72427;SDS011;60419;48.880;18.036;2023-08-08T12:34:42;3.13;;;1.30;;
72427;SDS011;60419;48.880;18.036;2023-08-08T12:37:27;3.10;;;1.33;;
72427;SDS011;60419;48.880;18.036;2023-08-08T12:40:13;2.95;;;1.35;;
72427;SDS011;60419;48.880;18.036;2023-08-08T12:42:58;3.13;;;1.20;;
72427;SDS011;60419;48.880;18.036;2023-08-08T12:45:44;2.03;;;1.02;;
72427;SDS011;60419;48.880;18.036;2023-08-08T12:48:30;2.63;;;1.33;;
72427;SDS011;60419;48.880;18.036;2023-08-08T12:51:15;2.55;;;1.20;;
72427;SDS011;60419;48.880;18.036;2023-08-08T12:54:02;2.33;;;1.20;;
72427;SDS011;60419;48.880;18.036;2023-08-08T12:56:47;2.78;;;1.20;;
72427;SDS011;60419;48.880;18.036;2023-08-08T12:59:33;1.58;;;1.10;;
72427;SDS011;60419;48.880;18.036;2023-08-08T13:02:18;1.95;;;1.08;;
72427;SDS011;60419;48.880;18.036;2023-08-08T13:05:04;2.05;;;1.02;;
72427;SDS011;60419;48.880;18.036;2023-08-08T13:07:51;2.95;;;1.20;;
72427;SDS011;60419;48.880;18.036;2023-08-08T13:10:37;2.55;;;1.00;;
72427;SDS011;60419;48.880;18.036;2023-08-08T13:13:22;2.38;;;1.20;;
72427;SDS011;60419;48.880;18.036;2023-08-08T13:16:10;2.70;;;1.10;;
72427;SDS011;60419;48.880;18.036;2023-08-08T13:18:55;1.83;;;1.00;;
72427;SDS011;60419;48.880;18.036;2023-08-08T13:21:41;1.83;;;1.00;;
72427;SDS011;60419;48.880;18.036;2023-08-08T13:24:26;2.10;;;1.10;;
72427;SDS011;60419;48.880;18.036;2023-08-08T13:27:12;3.10;;;1.20;;
72427;SDS011;60419;48.880;18.036;2023-08-08T13:29:57;1.92;;;1.02;;
72427;SDS011;60419;48.880;18.036;2023-08-08T13:32:42;2.03;;;1.17;;
72427;SDS011;60419;48.880;18.036;2023-08-08T13:35:28;1.90;;;1.25;;
72427;SDS011;60419;48.880;18.036;2023-08-08T13:38:15;2.47;;;1.20;;
72427;SDS011;60419;48.880;18.036;2023-08-08T13:41:00;2.15;;;1.20;;
72427;SDS011;60419;48.880;18.036;2023-08-08T13:43:45;1.80;;;0.90;;
72427;SDS011;60419;48.880;18.036;2023-08-08T13:46:31;2.75;;;1.17;;
72427;SDS011;60419;48.880;18.036;2023-08-08T13:49:16;3.25;;;1.30;;
72427;SDS011;60419;48.880;18.036;2023-08-08T13:52:01;2.00;;;1.00;;
72427;SDS011;60419;48.880;18.036;2023-08-08T13:54:47;2.05;;;0.98;;
72427;SDS011;60419;48.880;18.036;2023-08-08T13:57:33;4.22;;;1.00;;
72427;SDS011;60419;48.880;18.036;2023-08-08T14:00:18;1.52;;;1.08;;
72427;SDS011;60419;48.880;18.036;2023-08-08T14:03:03;1.60;;;1.00;;
72427;SDS011;60419;48.880;18.036;2023-08-08T14:05:49;2.38;;;1.00;;
72427;SDS011;60419;48.880;18.036;2023-08-08T14:08:35;1.70;;;1.00;;
72427;SDS011;60419;48.880;18.036;2023-08-08T14:11:20;3.20;;;1.10;;
72427;SDS011;60419;48.880;18.036;2023-08-08T14:14:06;2.53;;;1.10;;
72427;SDS011;60419;48.880;18.036;2023-08-08T14:16:51;2.08;;;1.08;;
72427;SDS011;60419;48.880;18.036;2023-08-08T14:19:36;2.88;;;1.10;;
72427;SDS011;60419;48.880;18.036;2023-08-08T14:22:22;1.75;;;1.08;;
72427;SDS011;60419;48.880;18.036;2023-08-08T14:25:07;2.17;;;1.10;;
72427;SDS011;60419;48.880;18.036;2023-08-08T14:27:53;2.83;;;1.23;;
72427;SDS011;60419;48.880;18.036;2023-08-08T14:30:38;2.65;;;1.30;;
72427;SDS011;60419;48.880;18.036;2023-08-08T14:33:23;2.50;;;1.35;;
72427;SDS011;60419;48.880;18.036;2023-08-08T14:36:09;3.03;;;1.50;;
72427;SDS011;60419;48.880;18.036;2023-08-08T14:38:54;2.15;;;1.20;;
72427;SDS011;60419;48.880;18.036;2023-08-08T14:41:40;2.20;;;1.30;;
72427;SDS011;60419;48.880;18.036;2023-08-08T14:44:25;2.83;;;1.25;;
72427;SDS011;60419;48.880;18.036;2023-08-08T14:47:12;3.15;;;1.33;;
72427;SDS011;60419;48.880;18.036;2023-08-08T14:49:57;3.53;;;1.40;;
72427;SDS011;60419;48.880;18.036;2023-08-08T14:52:42;2.17;;;1.30;;
72427;SDS011;60419;48.880;18.036;2023-08-08T14:55:29;5.07;;;1.30;;
72427;SDS011;60419;48.880;18.036;2023-08-08T14:58:14;3.22;;;1.38;;
72427;SDS011;60419;48.880;18.036;2023-08-08T15:01:00;2.50;;;1.30;;
72427;SDS011;60419;48.880;18.036;2023-08-08T15:03:46;3.17;;;1.20;;
72427;SDS011;60419;48.880;18.036;2023-08-08T15:06:31;2.80;;;1.20;;
72427;SDS011;60419;48.880;18.036;2023-08-08T15:09:17;4.38;;;1.52;;
72427;SDS011;60419;48.880;18.036;2023-08-08T15:12:02;2.67;;;1.27;;
72427;SDS011;60419;48.880;18.036;2023-08-08T15:14:48;2.70;;;1.10;;
72427;SDS011;60419;48.880;18.036;2023-08-08T15:17:33;2.78;;;1.20;;
72427;SDS011;60419;48.880;18.036;2023-08-08T15:20:20;2.35;;;1.38;;
72427;SDS011;60419;48.880;18.036;2023-08-08T15:23:05;2.60;;;1.20;;
72427;SDS011;60419;48.880;18.036;2023-08-08T15:25:52;2.50;;;1.33;;
72427;SDS011;60419;48.880;18.036;2023-08-08T15:28:40;2.15;;;1.20;;
72427;SDS011;60419;48.880;18.036;2023-08-08T15:31:25;4.30;;;1.35;;
72427;SDS011;60419;48.880;18.036;2023-08-08T15:34:12;1.77;;;1.15;;
72427;SDS011;60419;48.880;18.036;2023-08-08T15:36:57;2.33;;;1.23;;
72427;SDS011;60419;48.880;18.036;2023-08-08T15:39:43;2.10;;;1.15;;
72427;SDS011;60419;48.880;18.036;2023-08-08T15:42:29;2.55;;;1.02;;
72427;SDS011;60419;48.880;18.036;2023-08-08T15:45:15;2.95;;;1.20;;
72427;SDS011;60419;48.880;18.036;2023-08-08T15:48:00;3.63;;;1.20;;
72427;SDS011;60419;48.880;18.036;2023-08-08T15:50:45;3.78;;;1.40;;
72427;SDS011;60419;48.880;18.036;2023-08-08T15:53:31;2.33;;;1.38;;
72427;SDS011;60419;48.880;18.036;2023-08-08T15:56:18;4.50;;;1.52;;
72427;SDS011;60419;48.880;18.036;2023-08-08T15:59:04;3.15;;;1.10;;
72427;SDS011;60419;48.880;18.036;2023-08-08T16:01:50;2.30;;;1.40;;
72427;SDS011;60419;48.880;18.036;2023-08-08T16:04:35;4.88;;;1.40;;
72427;SDS011;60419;48.880;18.036;2023-08-08T16:07:20;3.33;;;1.40;;
72427;SDS011;60419;48.880;18.036;2023-08-08T16:10:06;4.00;;;1.35;;
72427;SDS011;60419;48.880;18.036;2023-08-08T16:12:52;4.32;;;1.30;;
72427;SDS011;60419;48.880;18.036;2023-08-08T16:15:37;3.47;;;1.45;;
72427;SDS011;60419;48.880;18.036;2023-08-08T16:18:23;3.00;;;1.10;;
72427;SDS011;60419;48.880;18.036;2023-08-08T16:21:08;3.58;;;1.50;;
72427;SDS011;60419;48.880;18.036;2023-08-08T16:23:53;4.90;;;1.63;;
72427;SDS011;60419;48.880;18.036;2023-08-08T16:26:39;4.13;;;2.42;;